Aviation Digital Data Service (ADDS)

Output produced by METARs form (0240 UTC 22 July 2017)
found at http://www.aviationweather.gov/adds/metars/
 
FMMI 220230Z 24001KT 9999 FEW020 07/07 Q1024 TEMPO 5000BR
TAF FMMI 212300Z 2200/2306 VRB03KT 9999 FEW010 SCT020 
     PROB30 2201/2206 0500 FG BKN005 
     BECMG 2205/2208 14010KT 
     BECMG 2215/2218 00000KT 
     PROB40 2301/2305 0400 FG
       
TAF FMNA 212300Z 2200/2224 14015KT 9999 SCT020 SCT040
       
FMNM 220200Z 10002KT CAVOK 18/16 Q1015
TAF FMNM 212300Z 2200/2224 12005KT 9999 SCT020 
     BECMG 2206/2209 32010KT 
     BECMG 2215/2218 14006KT
       
TAF FMNN 212300Z 2200/2224 20005KT 9999 SCT020 SCT040 
     PROB30 
     TEMPO 2200/2204 4000 SHRA 
     BECMG 2206/2209 26010KT
       
TAF FMMS 212300Z 2200/2224 22010KT 9999 FEW007 SCT017 BKN033 
     TEMPO 2200/2209 4000 RA 
     PROB40 
     TEMPO 2214/2224 4000 SHRA
       
FMMT 220200Z 20006KT 6000 -RA SCT017 BKN033 20/20 Q1019
TAF FMMT 212300Z 2200/2224 24006KT 9999 FEW007 SCT017 BKN033 
     PROB40 
     TEMPO 2200/2212 4000 SHRA 
     BECMG 2206/2208 16012KT 
     PROB40 
     TEMPO 2215/2224 4000 SHRA
       
FMSD 220200Z 00000KT 9999 FEW020 17/15 Q1019
TAF FMSD 212300Z 2200/2224 18006KT 9999 FEW017 SCT033 
     BECMG 2209/2212 06010KT
       
TAF FMST 212300Z 2200/2224 22008KT 9999 FEW020